createdAt,value
2023-05-19T00:00:51.619Z,82.72
2023-05-19T00:01:39.599Z,82.70
2023-05-19T00:03:06.730Z,83.42
2023-05-19T00:04:09.571Z,82.71
2023-05-19T00:05:03.589Z,82.46
2023-05-19T00:05:58.611Z,82.31
2023-05-19T00:06:53.623Z,82.74
2023-05-19T00:07:53.591Z,82.47
2023-05-19T00:08:48.589Z,82.55
2023-05-19T00:09:43.582Z,82.82
2023-05-19T00:10:39.572Z,82.94
2023-05-19T00:11:33.575Z,82.38
2023-05-19T00:12:16.590Z,82.56
2023-05-19T00:13:12.615Z,82.69
2023-05-19T00:14:11.603Z,82.26
2023-05-19T00:15:06.580Z,82.27
2023-05-19T00:16:00.622Z,82.61
2023-05-19T00:16:55.567Z,82.59
2023-05-19T00:17:36.766Z,82.66
2023-05-19T00:18:16.778Z,82.44
2023-05-19T00:18:58.651Z,82.92
2023-05-19T00:19:40.320Z,82.40
2023-05-19T00:20:22.633Z,82.52
2023-05-19T00:21:02.680Z,82.40
2023-05-19T00:21:46.584Z,82.50
2023-05-19T00:22:26.640Z,82.58
2023-05-19T00:23:06.572Z,82.41
2023-05-19T00:23:46.652Z,82.65
2023-05-19T00:24:26.621Z,82.83
2023-05-19T00:25:06.811Z,83.40
2023-05-19T00:25:47.574Z,82.69
2023-05-19T00:26:27.734Z,82.56
2023-05-19T00:27:07.566Z,82.72
2023-05-19T00:27:47.658Z,82.77
2023-05-19T00:28:27.595Z,82.62
2023-05-19T00:29:07.660Z,82.71
2023-05-19T00:29:48.562Z,82.67
2023-05-19T00:30:29.199Z,82.54
2023-05-19T00:31:11.563Z,82.42
2023-05-19T00:31:51.729Z,83.02
2023-05-19T00:32:31.611Z,82.85
2023-05-19T00:33:11.656Z,82.63
2023-05-19T00:33:52.571Z,82.51
2023-05-19T00:34:32.626Z,83.04
2023-05-19T00:35:13.559Z,83.32
2023-05-19T00:35:53.629Z,83.29
2023-05-19T00:36:33.538Z,83.07
2023-05-19T00:37:13.646Z,82.98
2023-05-19T00:37:55.608Z,83.22
2023-05-19T00:38:39.706Z,82.88
2023-05-19T00:39:19.575Z,82.73
2023-05-19T00:39:59.847Z,82.56
2023-05-19T00:40:42.546Z,83.30
2023-05-19T00:41:22.744Z,83.69
2023-05-19T00:42:03.558Z,83.00
2023-05-19T00:42:43.672Z,83.44
2023-05-19T00:43:23.526Z,83.29
2023-05-19T00:44:17.546Z,83.20
2023-05-19T00:44:58.551Z,83.34
2023-05-19T00:45:38.651Z,83.43
2023-05-19T00:46:19.636Z,83.18
2023-05-19T00:46:59.821Z,83.15
2023-05-19T00:47:40.580Z,82.84
2023-05-19T00:48:21.059Z,83.26
2023-05-19T00:49:01.543Z,83.34
2023-05-19T00:49:42.569Z,83.22
2023-05-19T00:50:17.629Z,83.56
2023-05-19T00:51:10.558Z,83.68
2023-05-19T00:51:44.625Z,84.06
2023-05-19T00:52:33.577Z,84.08
2023-05-19T00:53:07.632Z,83.74
2023-05-19T00:53:57.544Z,83.69
2023-05-19T00:54:31.656Z,83.76
2023-05-19T00:55:12.547Z,83.58
2023-05-19T00:55:52.654Z,83.94
2023-05-19T00:56:32.523Z,84.27
2023-05-19T00:57:12.649Z,84.14
2023-05-19T00:57:53.536Z,84.38
2023-05-19T00:58:34.635Z,84.63
2023-05-19T00:59:15.537Z,84.62
2023-05-19T00:59:56.489Z,84.29
2023-05-19T01:00:37.591Z,84.75
2023-05-19T01:01:17.767Z,84.61
2023-05-19T01:01:57.553Z,84.57
2023-05-19T01:02:39.991Z,84.77
2023-05-19T01:03:21.636Z,84.41
2023-05-19T01:04:01.951Z,84.63
2023-05-19T01:04:43.533Z,84.59
2023-05-19T01:05:24.658Z,84.59
2023-05-19T01:06:08.550Z,84.70
2023-05-19T01:06:49.632Z,84.70
2023-05-19T01:07:30.539Z,84.66
2023-05-19T01:08:11.609Z,84.80
2023-05-19T01:08:53.509Z,84.92
2023-05-19T01:09:33.628Z,84.59
2023-05-19T01:10:15.530Z,84.64
2023-05-19T01:10:55.650Z,84.50
2023-05-19T01:11:35.530Z,84.90
2023-05-19T01:12:15.656Z,84.91
2023-05-19T01:12:55.545Z,85.01
2023-05-19T01:13:36.788Z,85.08
2023-05-19T01:14:16.515Z,84.70
2023-05-19T01:14:56.665Z,84.70
2023-05-19T01:15:40.495Z,84.93
2023-05-19T01:16:48.769Z,84.97
2023-05-19T01:18:17.515Z,84.93
2023-05-19T01:19:27.539Z,85.46
2023-05-19T01:20:24.537Z,85.13
2023-05-19T01:21:56.589Z,84.97
2023-05-19T01:23:23.525Z,85.57
2023-05-19T01:24:53.527Z,85.55
2023-05-19T01:26:28.515Z,85.23
2023-05-19T01:28:07.538Z,85.12
2023-05-19T01:29:42.699Z,85.32
2023-05-19T01:30:40.523Z,85.55
2023-05-19T01:31:16.598Z,85.32
2023-05-19T01:32:06.723Z,85.15
2023-05-19T01:32:41.579Z,85.21
2023-05-19T01:33:30.502Z,85.80
2023-05-19T01:34:05.728Z,86.01
2023-05-19T01:34:53.500Z,85.69
2023-05-19T01:35:30.575Z,85.74
2023-05-19T01:36:19.505Z,85.56
2023-05-19T01:36:55.625Z,85.08
2023-05-19T01:37:44.527Z,85.50
2023-05-19T01:38:19.633Z,85.54
2023-05-19T01:39:04.505Z,85.04
2023-05-19T01:39:45.709Z,85.09
2023-05-19T01:40:27.500Z,85.10
2023-05-19T01:41:10.577Z,85.55
2023-05-19T01:41:51.483Z,85.42
2023-05-19T01:42:37.267Z,85.21
2023-05-19T01:43:23.508Z,85.55
2023-05-19T01:44:03.578Z,85.62
2023-05-19T01:44:44.523Z,85.41
2023-05-19T01:45:25.850Z,85.72
2023-05-19T01:46:06.510Z,85.63
2023-05-19T01:46:46.588Z,85.95
2023-05-19T01:47:27.526Z,85.46
2023-05-19T01:48:11.962Z,85.55
2023-05-19T01:48:53.502Z,85.50
2023-05-19T01:49:33.600Z,85.67
2023-05-19T01:50:14.580Z,85.33
2023-05-19T01:50:57.251Z,85.62
2023-05-19T01:51:38.491Z,85.39
2023-05-19T01:52:18.598Z,85.43
2023-05-19T01:52:59.468Z,85.47
2023-05-19T01:53:39.575Z,85.60
2023-05-19T01:54:19.476Z,85.80
2023-05-19T01:54:59.785Z,85.76
2023-05-19T01:55:54.529Z,85.47
2023-05-19T01:56:50.876Z,85.49
2023-05-19T01:57:48.492Z,85.57
2023-05-19T01:58:44.605Z,85.37
2023-05-19T02:00:12.504Z,85.26
2023-05-19T02:01:42.546Z,85.70
2023-05-19T02:03:45.491Z,85.83
2023-05-19T02:04:57.513Z,85.90
2023-05-19T02:06:17.474Z,85.87
2023-05-19T02:07:49.483Z,85.60
2023-05-19T02:08:58.565Z,85.47
2023-05-19T02:10:05.486Z,85.65
2023-05-19T02:10:40.956Z,85.87
2023-05-19T02:11:48.472Z,86.20
2023-05-19T02:12:35.914Z,85.87
2023-05-19T02:13:17.475Z,85.70
2023-05-19T02:14:01.558Z,85.80
2023-05-19T02:15:12.480Z,85.70
2023-05-19T02:15:53.708Z,86.03
2023-05-19T02:16:36.468Z,85.64
2023-05-19T02:17:20.662Z,85.99
2023-05-19T02:18:02.495Z,85.61
2023-05-19T02:18:42.496Z,85.79
2023-05-19T02:19:32.681Z,85.69
2023-05-19T02:20:20.447Z,85.71
2023-05-19T02:20:54.540Z,85.80
2023-05-19T02:21:42.464Z,85.45
2023-05-19T02:22:16.568Z,85.82
2023-05-19T02:23:03.471Z,86.39
2023-05-19T02:23:37.552Z,86.10
2023-05-19T02:24:17.579Z,86.27
2023-05-19T02:24:57.747Z,85.86
2023-05-19T02:25:38.455Z,85.66
2023-05-19T02:26:18.757Z,86.25
2023-05-19T02:27:00.463Z,86.40
2023-05-19T02:27:44.544Z,86.81
2023-05-19T02:28:25.470Z,86.40
2023-05-19T02:29:05.569Z,87.17
2023-05-19T02:29:45.482Z,87.16
2023-05-19T02:30:25.848Z,87.37
2023-05-19T02:31:05.447Z,87.32
2023-05-19T02:31:45.631Z,88.14
2023-05-19T02:32:27.484Z,87.43
2023-05-19T02:33:07.771Z,87.75
2023-05-19T02:33:49.435Z,88.04
2023-05-19T02:34:29.579Z,87.61
2023-05-19T02:35:10.476Z,87.63
2023-05-19T02:35:50.546Z,87.76
2023-05-19T02:36:33.435Z,88.85
2023-05-19T02:37:14.531Z,88.26
2023-05-19T02:37:54.472Z,88.33
2023-05-19T02:38:34.540Z,88.10
2023-05-19T02:39:15.452Z,88.42
2023-05-19T02:39:55.528Z,88.85
2023-05-19T02:40:35.519Z,88.90
2023-05-19T02:41:15.571Z,88.88
2023-05-19T02:41:55.451Z,88.88
2023-05-19T02:42:35.617Z,88.86
2023-05-19T02:43:15.443Z,88.61
2023-05-19T02:43:55.656Z,89.27
2023-05-19T02:44:35.430Z,89.52
2023-05-19T02:45:15.654Z,89.67
2023-05-19T02:45:55.497Z,89.00
2023-05-19T02:46:36.605Z,89.97
2023-05-19T02:47:17.411Z,89.77
2023-05-19T02:47:57.622Z,89.65
2023-05-19T02:48:37.422Z,89.76
2023-05-19T02:49:17.596Z,89.75
2023-05-19T02:49:57.447Z,89.58
2023-05-19T02:50:37.592Z,89.46
2023-05-19T02:51:17.448Z,89.31
2023-05-19T02:51:57.565Z,89.55
2023-05-19T02:52:37.426Z,89.38
2023-05-19T02:53:17.511Z,89.76
2023-05-19T02:53:57.443Z,89.57
2023-05-19T02:54:38.565Z,90.26
2023-05-19T02:55:23.440Z,90.00
2023-05-19T02:56:03.619Z,90.30
2023-05-19T02:56:43.457Z,90.29
2023-05-19T02:57:24.120Z,90.44
2023-05-19T02:58:05.448Z,90.68
2023-05-19T02:58:45.510Z,90.64
2023-05-19T02:59:25.805Z,90.37
2023-05-19T03:00:06.789Z,90.62
2023-05-19T03:00:46.425Z,91.03
2023-05-19T03:01:26.539Z,91.13
2023-05-19T03:02:08.571Z,91.13
2023-05-19T03:02:48.597Z,90.81
2023-05-19T03:03:29.553Z,91.06
2023-05-19T03:04:03.562Z,90.69
2023-05-19T03:04:50.416Z,91.03
2023-05-19T03:05:24.183Z,91.22
2023-05-19T03:06:15.433Z,90.77
2023-05-19T03:06:49.136Z,91.03
2023-05-19T03:07:31.463Z,91.02
2023-05-19T03:08:06.227Z,90.65
2023-05-19T03:08:42.305Z,90.77
2023-05-19T03:09:23.440Z,90.84
2023-05-19T03:09:57.504Z,90.53
2023-05-19T03:10:31.641Z,90.74
2023-05-19T03:11:12.415Z,90.37
2023-05-19T03:11:46.512Z,90.80
2023-05-19T03:12:20.195Z,90.27
2023-05-19T03:13:00.418Z,90.29
2023-05-19T03:13:34.886Z,90.50
2023-05-19T03:14:09.526Z,90.22
2023-05-19T03:14:50.446Z,90.23
2023-05-19T03:15:24.534Z,90.23
2023-05-19T03:15:59.247Z,90.70
2023-05-19T03:16:40.478Z,90.75
2023-05-19T03:17:14.586Z,90.53
2023-05-19T03:17:49.404Z,90.37
2023-05-19T03:18:31.427Z,90.45
2023-05-19T03:19:05.752Z,90.44
2023-05-19T03:19:41.514Z,90.32
2023-05-19T03:20:22.429Z,90.52
2023-05-19T03:20:56.593Z,90.55
2023-05-19T03:21:32.120Z,90.46
2023-05-19T03:22:12.407Z,90.57
2023-05-19T03:22:46.524Z,90.25
2023-05-19T03:23:21.789Z,90.22
2023-05-19T03:24:01.417Z,90.27
2023-05-19T03:24:36.243Z,90.50
2023-05-19T03:25:10.558Z,90.65
2023-05-19T03:25:51.400Z,90.29
2023-05-19T03:26:26.170Z,90.45
2023-05-19T03:27:00.653Z,90.63
2023-05-19T03:27:40.406Z,90.21
2023-05-19T03:28:14.527Z,90.05
2023-05-19T03:28:49.140Z,90.15
2023-05-19T03:29:30.516Z,89.95
2023-05-19T03:30:06.631Z,90.24
2023-05-19T03:30:41.194Z,89.85
2023-05-19T03:31:22.401Z,90.05
2023-05-19T03:31:56.482Z,90.06
2023-05-19T03:32:32.829Z,90.05
2023-05-19T03:33:14.651Z,90.12
2023-05-19T03:33:48.529Z,89.97
2023-05-19T03:34:22.496Z,89.83
2023-05-19T03:35:02.427Z,89.93
2023-05-19T03:35:36.517Z,90.22
2023-05-19T03:36:12.595Z,90.12
2023-05-19T03:36:52.390Z,90.03
2023-05-19T03:37:26.547Z,89.90
2023-05-19T03:38:00.131Z,89.88
2023-05-19T03:38:40.383Z,90.08
2023-05-19T03:39:14.943Z,90.61
2023-05-19T03:39:49.195Z,90.44
2023-05-19T03:40:30.551Z,90.43
2023-05-19T03:41:04.494Z,90.38
2023-05-19T03:41:38.163Z,90.54
2023-05-19T03:42:18.422Z,90.77
2023-05-19T03:42:54.235Z,91.00
2023-05-19T03:43:28.187Z,90.45
2023-05-19T03:44:09.400Z,90.59
2023-05-19T03:44:44.620Z,90.72
2023-05-19T03:45:18.190Z,90.87
2023-05-19T03:45:59.458Z,90.58
2023-05-19T03:46:33.466Z,90.85
2023-05-19T03:47:07.327Z,90.63
2023-05-19T03:47:51.460Z,90.83
2023-05-19T03:48:26.695Z,90.66
2023-05-19T03:49:00.194Z,90.84
2023-05-19T03:49:40.376Z,90.74
2023-05-19T03:50:14.476Z,91.24
2023-05-19T03:50:48.605Z,90.87
2023-05-19T03:51:28.389Z,90.68
2023-05-19T03:52:04.574Z,90.99
2023-05-19T03:52:39.797Z,90.75
2023-05-19T03:53:19.460Z,91.11
2023-05-19T03:53:53.587Z,90.83
2023-05-19T03:54:27.485Z,91.00
2023-05-19T03:55:07.389Z,90.50
2023-05-19T03:55:41.474Z,90.99
2023-05-19T03:56:16.787Z,90.88
2023-05-19T03:56:56.393Z,90.55
2023-05-19T03:57:30.475Z,90.59
2023-05-19T03:58:04.259Z,90.46
2023-05-19T03:58:47.358Z,90.49
2023-05-19T03:59:21.469Z,90.04
2023-05-19T03:59:55.220Z,90.30
2023-05-19T04:00:35.656Z,90.22
2023-05-19T04:01:09.474Z,90.12
2023-05-19T04:01:43.211Z,90.34
2023-05-19T04:03:18.587Z,90.28
2023-05-19T04:03:53.136Z,90.39
2023-05-19T04:04:34.396Z,90.27
2023-05-19T04:05:15.510Z,90.80
2023-05-19T04:05:55.424Z,90.66
2023-05-19T04:06:36.244Z,90.65
2023-05-19T04:07:16.365Z,90.47
2023-05-19T04:07:57.409Z,90.81
2023-05-19T04:08:32.110Z,90.81
2023-05-19T04:09:13.449Z,91.11
2023-05-19T04:09:55.407Z,91.00
2023-05-19T04:10:29.587Z,90.79
2023-05-19T04:11:03.158Z,90.86
2023-05-19T04:11:45.353Z,91.15
2023-05-19T04:12:19.472Z,91.22
2023-05-19T04:12:53.102Z,91.07
2023-05-19T04:13:33.391Z,91.27
2023-05-19T04:14:07.490Z,91.40
2023-05-19T04:14:41.141Z,91.19
2023-05-19T04:15:22.355Z,91.22
2023-05-19T04:15:56.505Z,91.30
2023-05-19T04:16:30.161Z,91.48
2023-05-19T04:17:11.345Z,91.11
2023-05-19T04:17:46.045Z,91.38
2023-05-19T04:18:20.077Z,91.84
2023-05-19T04:19:01.402Z,91.51
2023-05-19T04:19:35.546Z,92.11
2023-05-19T04:20:09.994Z,91.82
2023-05-19T04:20:50.371Z,91.47
2023-05-19T04:21:24.483Z,91.70
2023-05-19T04:21:58.080Z,91.55
2023-05-19T04:22:39.344Z,91.57
2023-05-19T04:23:13.430Z,91.73
2023-05-19T04:23:47.071Z,91.86
2023-05-19T04:24:27.359Z,91.66
2023-05-19T04:25:01.744Z,91.42
2023-05-19T04:25:48.360Z,91.50
2023-05-19T04:26:24.820Z,91.79
2023-05-19T04:27:12.438Z,91.60
2023-05-19T04:27:48.280Z,91.64
2023-05-19T04:28:36.357Z,91.25
2023-05-19T04:29:10.752Z,91.75
2023-05-19T04:29:52.437Z,91.64
2023-05-19T04:30:34.429Z,91.35
2023-05-19T04:31:19.395Z,91.56
2023-05-19T04:32:00.953Z,91.36
2023-05-19T04:32:43.374Z,91.26
2023-05-19T04:33:26.449Z,91.21
2023-05-19T04:34:08.358Z,91.55
2023-05-19T04:34:48.440Z,91.49
2023-05-19T04:35:29.394Z,92.20
2023-05-19T04:36:10.511Z,91.54
2023-05-19T04:36:53.127Z,91.75
2023-05-19T04:37:33.405Z,91.89
2023-05-19T04:38:14.344Z,91.70
2023-05-19T04:38:55.102Z,91.69
2023-05-19T04:39:35.364Z,91.52
2023-05-19T04:40:17.367Z,91.64
2023-05-19T04:40:58.368Z,91.75
2023-05-19T04:41:40.432Z,91.35
2023-05-19T04:42:21.354Z,91.55
2023-05-19T04:43:02.314Z,91.76
2023-05-19T04:43:43.344Z,91.36
2023-05-19T04:44:23.505Z,91.51
2023-05-19T04:45:03.367Z,91.73
2023-05-19T04:45:43.444Z,91.35
2023-05-19T04:46:24.557Z,91.76
2023-05-19T04:47:06.268Z,91.59
2023-05-19T04:47:48.467Z,91.89
2023-05-19T04:48:30.955Z,91.46
2023-05-19T04:49:11.335Z,91.17
2023-05-19T04:49:55.499Z,91.86
2023-05-19T04:50:37.584Z,91.65
2023-05-19T04:51:17.754Z,91.54
2023-05-19T04:51:59.391Z,91.36
2023-05-19T04:52:41.762Z,91.69
2023-05-19T04:53:22.368Z,91.69
2023-05-19T04:54:02.623Z,91.71
2023-05-19T04:54:44.364Z,91.65
2023-05-19T04:55:24.543Z,91.71
2023-05-19T04:56:07.380Z,91.54
2023-05-19T04:56:47.412Z,91.66
2023-05-19T04:57:27.329Z,91.59
2023-05-19T04:58:08.030Z,91.37
2023-05-19T04:58:51.374Z,91.44
2023-05-19T04:59:31.614Z,91.44
2023-05-19T05:00:15.337Z,91.40
2023-05-19T05:00:55.969Z,91.43
2023-05-19T05:01:37.405Z,91.78
2023-05-19T05:02:18.519Z,91.51
2023-05-19T05:02:59.415Z,91.69
2023-05-19T05:03:39.624Z,91.37
2023-05-19T05:04:19.366Z,91.39
2023-05-19T05:04:59.476Z,91.85
2023-05-19T05:05:39.339Z,91.55
2023-05-19T05:06:19.402Z,91.38
2023-05-19T05:07:00.346Z,91.69
2023-05-19T05:07:40.487Z,92.06
2023-05-19T05:08:22.339Z,91.66
2023-05-19T05:09:04.270Z,90.87
2023-05-19T05:09:44.302Z,90.88
2023-05-19T05:10:24.406Z,90.69
2023-05-19T05:11:06.346Z,91.21
2023-05-19T05:11:47.558Z,90.82
2023-05-19T05:12:28.339Z,90.33
2023-05-19T05:13:11.615Z,90.13
2023-05-19T05:13:53.342Z,89.99
2023-05-19T05:14:34.424Z,89.83
2023-05-19T05:15:16.330Z,89.87
2023-05-19T05:15:57.621Z,89.94
2023-05-19T05:16:38.343Z,90.26
2023-05-19T05:17:19.436Z,90.28
2023-05-19T05:18:00.417Z,90.28
2023-05-19T05:18:44.321Z,90.35
2023-05-19T05:19:26.457Z,89.98
2023-05-19T05:20:06.951Z,89.91
2023-05-19T05:20:52.307Z,89.96
2023-05-19T05:21:33.431Z,90.13
2023-05-19T05:22:14.330Z,90.11
2023-05-19T05:22:55.854Z,90.35
2023-05-19T05:23:37.316Z,90.15
2023-05-19T05:24:18.571Z,90.18
2023-05-19T05:24:59.354Z,90.65
2023-05-19T05:25:57.321Z,90.38
2023-05-19T05:26:52.307Z,90.02
2023-05-19T05:27:46.326Z,89.99
2023-05-19T05:28:41.292Z,90.09
2023-05-19T05:29:35.278Z,90.40
2023-05-19T05:30:22.409Z,90.29
2023-05-19T05:30:57.834Z,90.20
2023-05-19T05:31:45.303Z,90.44
2023-05-19T05:32:19.520Z,90.46
2023-05-19T05:33:06.521Z,90.65
2023-05-19T05:33:40.580Z,90.87
2023-05-19T05:34:27.313Z,90.66
2023-05-19T05:35:01.385Z,90.94
2023-05-19T05:35:42.293Z,90.92
2023-05-19T05:36:22.407Z,90.51
2023-05-19T05:37:02.315Z,90.65
2023-05-19T05:37:42.388Z,91.26
2023-05-19T05:38:22.345Z,91.41
2023-05-19T05:39:02.512Z,91.02
2023-05-19T05:39:43.321Z,91.05
2023-05-19T05:40:23.438Z,90.88
2023-05-19T05:41:03.308Z,90.55
2023-05-19T05:41:45.453Z,90.46
2023-05-19T05:42:28.946Z,90.55
2023-05-19T05:43:10.520Z,90.62
2023-05-19T05:43:51.312Z,90.23
2023-05-19T05:44:31.594Z,90.57
2023-05-19T05:45:12.324Z,90.70
2023-05-19T05:45:52.395Z,90.50
2023-05-19T05:46:32.524Z,90.44
2023-05-19T05:47:13.766Z,90.63
2023-05-19T05:47:54.343Z,91.00
2023-05-19T05:48:35.688Z,91.03
2023-05-19T05:49:16.280Z,90.74
2023-05-19T05:49:57.442Z,91.35
2023-05-19T05:50:38.342Z,91.31
2023-05-19T05:51:18.394Z,91.38
2023-05-19T05:52:05.778Z,91.37
2023-05-19T05:52:48.454Z,91.09
2023-05-19T05:53:29.271Z,91.12
2023-05-19T05:54:09.394Z,91.25
2023-05-19T05:54:50.274Z,91.49
2023-05-19T05:55:31.625Z,91.27
2023-05-19T05:56:14.291Z,91.08
2023-05-19T05:56:55.372Z,91.31
2023-05-19T05:57:37.297Z,91.27
2023-05-19T05:58:17.360Z,91.60
2023-05-19T05:58:58.279Z,91.18
2023-05-19T05:59:41.241Z,90.97
2023-05-19T06:00:22.303Z,91.22
2023-05-19T06:01:02.693Z,91.05
2023-05-19T06:01:43.308Z,90.62
2023-05-19T06:03:03.435Z,90.53
2023-05-19T06:03:58.318Z,90.92
2023-05-19T06:04:52.294Z,91.32
2023-05-19T06:05:46.308Z,90.70
2023-05-19T06:06:40.279Z,90.18
2023-05-19T06:07:35.296Z,90.70
2023-05-19T06:08:24.316Z,90.52
2023-05-19T06:08:58.412Z,90.18
2023-05-19T06:09:45.306Z,90.46
2023-05-19T06:10:19.644Z,90.20
2023-05-19T06:11:06.281Z,90.12
2023-05-19T06:11:40.449Z,90.05
2023-05-19T06:12:29.285Z,89.72
2023-05-19T06:13:03.409Z,89.87
2023-05-19T06:13:44.289Z,89.80
2023-05-19T06:14:24.374Z,89.72
2023-05-19T06:15:05.300Z,89.50
2023-05-19T06:15:45.465Z,89.56
2023-05-19T06:16:28.374Z,90.11
2023-05-19T06:17:08.406Z,90.18
2023-05-19T06:17:48.334Z,90.55
2023-05-19T06:18:28.355Z,90.30
2023-05-19T06:19:08.355Z,90.32
2023-05-19T06:19:49.838Z,90.39
2023-05-19T06:20:31.614Z,89.67
2023-05-19T06:21:13.374Z,89.98
2023-05-19T06:21:53.274Z,89.53
2023-05-19T06:22:34.475Z,89.34
2023-05-19T06:23:15.279Z,89.29
2023-05-19T06:24:10.298Z,89.33
2023-05-19T06:25:04.285Z,89.53
2023-05-19T06:25:58.322Z,89.04
2023-05-19T06:26:52.282Z,89.29
2023-05-19T06:27:46.250Z,89.19
2023-05-19T06:28:40.275Z,88.39
2023-05-19T06:29:27.266Z,88.51
2023-05-19T06:30:01.363Z,88.49
2023-05-19T06:30:48.264Z,88.10
2023-05-19T06:31:22.935Z,88.03
2023-05-19T06:32:11.254Z,88.19
2023-05-19T06:32:46.170Z,88.10
2023-05-19T06:33:33.288Z,87.78
2023-05-19T06:34:07.379Z,87.96
2023-05-19T06:34:47.319Z,87.87
2023-05-19T06:35:27.378Z,87.67
2023-05-19T06:36:08.242Z,88.08
2023-05-19T06:36:48.348Z,88.07
2023-05-19T06:37:29.235Z,87.89
2023-05-19T06:38:09.349Z,87.95
2023-05-19T06:38:49.257Z,88.07
2023-05-19T06:39:29.348Z,87.90
2023-05-19T06:40:10.292Z,87.64
2023-05-19T06:40:50.354Z,87.64
2023-05-19T06:41:30.245Z,87.89
2023-05-19T06:42:11.351Z,88.26
2023-05-19T06:42:51.270Z,87.95
2023-05-19T06:43:31.444Z,88.29
2023-05-19T06:44:15.284Z,88.04
2023-05-19T06:44:57.359Z,87.42
2023-05-19T06:45:37.247Z,87.10
2023-05-19T06:46:17.845Z,87.16
2023-05-19T06:46:58.296Z,87.20
2023-05-19T06:47:38.470Z,87.42
2023-05-19T06:48:19.239Z,87.39
2023-05-19T06:48:59.359Z,87.36
2023-05-19T06:49:39.292Z,87.47
2023-05-19T06:50:19.357Z,87.33
2023-05-19T06:50:59.271Z,87.35
2023-05-19T06:51:39.332Z,87.32
2023-05-19T06:52:20.258Z,86.85
2023-05-19T06:53:00.677Z,87.04
2023-05-19T06:53:41.226Z,87.03
2023-05-19T06:54:21.305Z,87.09
2023-05-19T06:55:01.257Z,87.18
2023-05-19T06:55:54.387Z,87.46
2023-05-19T06:56:39.284Z,87.43
2023-05-19T06:57:19.309Z,87.14
2023-05-19T06:57:59.261Z,87.04
2023-05-19T06:58:39.505Z,87.21
2023-05-19T06:59:19.240Z,87.82
2023-05-19T06:59:59.311Z,87.61
2023-05-19T07:00:40.232Z,87.82
2023-05-19T07:01:20.511Z,87.66
2023-05-19T07:02:00.475Z,87.77
2023-05-19T07:02:47.491Z,88.01
2023-05-19T07:03:31.342Z,87.83
2023-05-19T07:04:12.527Z,87.82
2023-05-19T07:04:54.230Z,87.87
2023-05-19T07:05:36.726Z,88.25
2023-05-19T07:06:19.245Z,88.48
2023-05-19T07:07:11.217Z,88.51
2023-05-19T07:08:05.249Z,88.08
2023-05-19T07:08:59.251Z,87.81
2023-05-19T07:09:54.231Z,87.23
2023-05-19T07:10:48.217Z,86.93
2023-05-19T07:11:42.240Z,85.68
2023-05-19T07:12:29.249Z,84.87
2023-05-19T07:13:04.436Z,84.78
2023-05-19T07:13:52.243Z,84.43
2023-05-19T07:14:26.327Z,84.24
2023-05-19T07:15:14.213Z,83.86
2023-05-19T07:15:52.411Z,84.00
2023-05-19T07:16:41.297Z,84.44
2023-05-19T07:17:15.499Z,84.72
2023-05-19T07:17:55.283Z,84.97
2023-05-19T07:18:35.944Z,84.55
2023-05-19T07:19:16.296Z,84.36
2023-05-19T07:19:56.423Z,85.04
2023-05-19T07:20:37.214Z,84.98
2023-05-19T07:21:17.432Z,84.92
2023-05-19T07:21:57.264Z,84.28
2023-05-19T07:22:38.504Z,84.54
2023-05-19T07:23:18.223Z,84.79
2023-05-19T07:23:58.297Z,84.47
2023-05-19T07:24:39.240Z,84.63
2023-05-19T07:25:19.310Z,84.73
2023-05-19T07:26:03.212Z,84.58
2023-05-19T07:26:43.337Z,84.46
2023-05-19T07:27:23.247Z,84.46
2023-05-19T07:28:04.310Z,84.41
2023-05-19T07:28:45.209Z,84.31
2023-05-19T07:29:25.695Z,84.21
2023-05-19T07:30:06.256Z,84.35
2023-05-19T07:30:46.294Z,84.42
2023-05-19T07:31:26.265Z,84.44
2023-05-19T07:32:06.318Z,84.24
2023-05-19T07:32:47.229Z,83.98
2023-05-19T07:33:27.284Z,84.18
2023-05-19T07:34:10.240Z,83.94
2023-05-19T07:34:50.512Z,84.26
2023-05-19T07:35:31.217Z,84.29
2023-05-19T07:36:11.431Z,84.44
2023-05-19T07:36:52.212Z,84.54
2023-05-19T07:37:32.354Z,84.57
2023-05-19T07:38:14.191Z,84.72
2023-05-19T07:38:54.344Z,84.68
2023-05-19T07:39:36.315Z,85.02
2023-05-19T07:40:16.324Z,84.70
2023-05-19T07:40:57.209Z,85.11
2023-05-19T07:41:37.286Z,84.41
2023-05-19T07:42:17.202Z,84.62
2023-05-19T07:42:59.297Z,84.16
2023-05-19T07:43:39.210Z,83.97
2023-05-19T07:44:19.330Z,83.71
2023-05-19T07:45:00.275Z,83.50
2023-05-19T07:45:40.349Z,83.29
2023-05-19T07:46:23.215Z,83.58
2023-05-19T07:47:03.374Z,83.62
2023-05-19T07:47:44.243Z,83.70
2023-05-19T07:48:25.774Z,83.77
2023-05-19T07:49:07.182Z,83.50
2023-05-19T07:49:49.116Z,83.35
2023-05-19T07:50:32.406Z,83.54
2023-05-19T07:51:13.372Z,83.12
2023-05-19T07:51:54.193Z,83.08
2023-05-19T07:52:34.324Z,83.14
2023-05-19T07:53:15.182Z,82.82
2023-05-19T07:53:49.101Z,82.87
2023-05-19T07:54:36.183Z,83.08
2023-05-19T07:55:09.965Z,83.02
2023-05-19T07:55:58.504Z,82.96
2023-05-19T07:56:32.956Z,83.10
2023-05-19T07:57:21.162Z,83.21
2023-05-19T07:57:54.889Z,83.30
2023-05-19T07:58:44.218Z,83.05
2023-05-19T07:59:17.994Z,83.19
2023-05-19T08:00:10.870Z,82.77
2023-05-19T08:00:45.917Z,83.03
2023-05-19T08:01:28.238Z,82.80
2023-05-19T08:02:02.382Z,82.90
2023-05-19T08:02:36.404Z,82.68
2023-05-19T08:03:27.510Z,83.13
2023-05-19T08:04:01.552Z,83.05
2023-05-19T08:04:35.946Z,83.26
2023-05-19T08:05:21.085Z,83.06
2023-05-19T08:05:58.259Z,83.39
2023-05-19T08:06:44.209Z,83.75
2023-05-19T08:07:26.438Z,83.69
2023-05-19T08:08:06.172Z,84.15
2023-05-19T08:08:47.399Z,84.12
2023-05-19T08:09:27.161Z,84.01
2023-05-19T08:10:07.287Z,83.77
2023-05-19T08:10:47.156Z,83.29
2023-05-19T08:11:27.337Z,83.34
2023-05-19T08:12:08.238Z,83.40
2023-05-19T08:12:49.424Z,83.47
2023-05-19T08:13:30.196Z,83.19
2023-05-19T08:14:10.832Z,83.18
2023-05-19T08:14:51.208Z,83.09
2023-05-19T08:15:31.300Z,83.10
2023-05-19T08:16:12.270Z,83.13
2023-05-19T08:16:53.275Z,83.09
2023-05-19T08:17:33.193Z,83.06
2023-05-19T08:18:13.267Z,83.11
2023-05-19T08:18:53.221Z,83.44
2023-05-19T08:19:36.364Z,83.45
2023-05-19T08:20:18.214Z,83.55
2023-05-19T08:20:59.498Z,83.50
2023-05-19T08:21:41.219Z,83.69
2023-05-19T08:22:21.282Z,83.74
2023-05-19T08:23:01.286Z,83.59
2023-05-19T08:23:41.287Z,83.33
2023-05-19T08:24:22.163Z,83.53
2023-05-19T08:25:06.243Z,83.54
2023-05-19T08:25:47.245Z,83.75
2023-05-19T08:26:27.319Z,83.50
2023-05-19T08:27:08.198Z,83.63
2023-05-19T08:27:48.283Z,83.58
2023-05-19T08:28:28.196Z,83.52
2023-05-19T08:29:09.317Z,83.33
2023-05-19T08:29:50.166Z,83.29
2023-05-19T08:30:30.674Z,83.57
2023-05-19T08:31:11.200Z,83.51
2023-05-19T08:31:53.118Z,83.59
2023-05-19T08:32:33.260Z,83.21
2023-05-19T08:33:14.355Z,82.80
2023-05-19T08:33:54.207Z,83.03
2023-05-19T08:34:34.248Z,83.47
2023-05-19T08:35:15.208Z,83.41
2023-05-19T08:35:55.448Z,83.54
2023-05-19T08:36:36.213Z,84.10
2023-05-19T08:37:17.230Z,83.76
2023-05-19T08:37:58.146Z,84.13
2023-05-19T08:38:38.252Z,83.58
2023-05-19T08:39:23.187Z,83.61
2023-05-19T08:40:05.362Z,84.09
2023-05-19T08:40:48.185Z,84.48
2023-05-19T08:41:29.253Z,84.65
2023-05-19T08:42:17.176Z,85.01
2023-05-19T08:42:52.253Z,84.64
2023-05-19T08:43:39.136Z,84.47
2023-05-19T08:44:13.234Z,84.31
2023-05-19T08:44:54.208Z,84.43
2023-05-19T08:45:35.390Z,84.44
2023-05-19T08:46:18.169Z,84.92
2023-05-19T08:46:58.295Z,84.81
2023-05-19T08:47:39.193Z,85.10
2023-05-19T08:48:20.227Z,84.99
2023-05-19T08:49:11.179Z,85.16
2023-05-19T08:50:01.199Z,84.75
2023-05-19T08:50:56.220Z,85.07
2023-05-19T08:52:09.156Z,84.81
2023-05-19T08:53:25.052Z,84.63
2023-05-19T08:54:29.138Z,84.15
2023-05-19T08:56:05.159Z,84.11
2023-05-19T08:56:39.258Z,84.44
2023-05-19T08:57:30.099Z,84.23
2023-05-19T08:58:10.205Z,83.90
2023-05-19T08:58:58.136Z,83.51
2023-05-19T08:59:32.244Z,83.67
2023-05-19T09:00:20.139Z,83.78
2023-05-19T09:00:57.760Z,83.11
2023-05-19T09:01:41.199Z,82.84
2023-05-19T09:02:23.754Z,82.85
2023-05-19T09:03:55.283Z,82.68
2023-05-19T09:04:36.174Z,82.70
2023-05-19T09:05:17.283Z,82.93
2023-05-19T09:06:01.228Z,83.22
2023-05-19T09:06:48.179Z,83.16
2023-05-19T09:07:43.158Z,83.17
2023-05-19T09:08:37.122Z,83.36
2023-05-19T09:09:31.199Z,83.23
2023-05-19T09:10:29.324Z,83.84
2023-05-19T09:11:24.136Z,83.65